createdAt,value
2017-09-28T00:02:08.121Z,68.90
2017-09-28T00:04:34.204Z,76.87
2017-09-28T00:07:01.043Z,68.07
2017-09-28T00:09:27.126Z,79.60
2017-09-28T00:11:53.202Z,67.40
2017-09-28T00:14:19.274Z,64.03
2017-09-28T00:16:45.349Z,64.50
2017-09-28T00:19:11.401Z,64.70
2017-09-28T00:21:37.461Z,66.40
2017-09-28T00:24:03.514Z,71.60
2017-09-28T00:26:29.613Z,71.73
2017-09-28T00:28:56.413Z,66.10
2017-09-28T00:31:22.497Z,66.83
2017-09-28T00:33:48.585Z,62.10
2017-09-28T00:36:14.645Z,70.33
2017-09-28T00:38:40.777Z,61.33
2017-09-28T00:41:07.596Z,65.70
2017-09-28T00:43:33.722Z,53.27
2017-09-28T00:46:00.526Z,59.33
2017-09-28T00:48:27.381Z,67.63
2017-09-28T00:50:54.229Z,76.40
2017-09-28T00:53:20.269Z,60.20
2017-09-28T00:55:46.330Z,75.50
2017-09-28T00:58:12.373Z,53.40
2017-09-28T01:00:38.479Z,58.53
2017-09-28T01:03:04.538Z,62.17
2017-09-28T01:05:31.373Z,57.20
2017-09-28T01:07:57.454Z,67.57
2017-09-28T01:10:25.300Z,62.57
2017-09-28T01:12:53.120Z,64.33
2017-09-28T01:15:20.960Z,71.97
2017-09-28T01:17:48.785Z,80.83
2017-09-28T01:20:16.601Z,61.30
2017-09-28T01:22:44.554Z,63.83
2017-09-28T01:25:12.385Z,61.60
2017-09-28T01:27:40.270Z,67.30
2017-09-28T01:30:08.119Z,62.97
2017-09-28T01:32:35.981Z,56.20
2017-09-28T01:35:03.806Z,62.20
2017-09-28T01:37:31.640Z,62.27
2017-09-28T01:39:59.497Z,70.87
2017-09-28T01:42:27.340Z,63.50
2017-09-28T01:44:55.162Z,62.60
2017-09-28T01:47:23.010Z,71.67
2017-09-28T01:49:50.859Z,71.10
2017-09-28T01:52:18.680Z,61.33
2017-09-28T01:54:46.550Z,69.30
2017-09-28T01:57:14.415Z,64.10
2017-09-28T01:59:42.254Z,71.27
2017-09-28T02:02:10.098Z,63.33
2017-09-28T02:04:37.942Z,64.00
2017-09-28T02:07:05.784Z,63.47
2017-09-28T02:09:33.663Z,65.97
2017-09-28T02:12:01.483Z,64.70
2017-09-28T02:14:29.321Z,64.73
2017-09-28T02:16:57.145Z,67.60
2017-09-28T02:19:25.025Z,68.83
2017-09-28T02:21:52.859Z,66.30
2017-09-28T02:24:20.713Z,68.10
2017-09-28T02:26:48.540Z,70.90
2017-09-28T02:29:16.383Z,70.70
2017-09-28T02:31:44.228Z,75.33
2017-09-28T02:34:12.057Z,71.03
2017-09-28T02:36:39.879Z,68.83
2017-09-28T02:39:07.707Z,77.07
2017-09-28T02:41:35.528Z,73.40
2017-09-28T02:44:03.349Z,69.47
2017-09-28T02:46:31.186Z,71.90
2017-09-28T02:48:59.006Z,94.93
2017-09-28T02:51:26.845Z,78.73
2017-09-28T02:53:54.656Z,68.17
2017-09-28T02:56:22.473Z,62.30
2017-09-28T02:58:50.308Z,57.90
2017-09-28T03:01:18.144Z,64.60
2017-09-28T03:03:45.997Z,62.03
2017-09-28T03:06:13.836Z,64.13
2017-09-28T03:08:41.677Z,64.20
2017-09-28T03:11:09.505Z,61.83
2017-09-28T03:13:37.346Z,67.40
2017-09-28T03:16:05.277Z,63.70
2017-09-28T03:18:33.150Z,64.47
2017-09-28T03:21:00.976Z,62.80
2017-09-28T03:23:28.810Z,64.83
2017-09-28T03:25:56.656Z,63.30
2017-09-28T03:28:24.500Z,64.73
2017-09-28T03:30:52.333Z,65.27
2017-09-28T03:33:20.149Z,71.43
2017-09-28T03:35:47.977Z,90.87
2017-09-28T03:38:15.796Z,66.50
2017-09-28T03:40:43.649Z,76.50
2017-09-28T03:43:11.513Z,83.43
2017-09-28T03:45:37.593Z,65.73
2017-09-28T03:48:03.675Z,76.83
2017-09-28T03:50:30.317Z,75.00
2017-09-28T03:52:57.109Z,74.13
2017-09-28T03:55:23.904Z,60.47
2017-09-28T03:57:49.990Z,75.67
2017-09-28T04:00:16.058Z,65.90
2017-09-28T04:02:42.122Z,66.60
2017-09-28T04:05:08.170Z,78.30
2017-09-28T04:07:34.216Z,72.50
2017-09-28T04:10:00.278Z,68.60
2017-09-28T04:12:26.345Z,63.03
2017-09-28T04:14:52.437Z,68.50
2017-09-28T04:17:18.489Z,70.40
2017-09-28T04:19:44.541Z,65.67
2017-09-28T04:22:10.614Z,70.70
2017-09-28T04:24:36.661Z,68.50
2017-09-28T04:27:02.722Z,70.07
2017-09-28T04:29:28.825Z,68.47
2017-09-28T04:31:54.894Z,72.93
2017-09-28T04:34:21.717Z,72.50
2017-09-28T04:36:47.767Z,77.63
2017-09-28T04:39:13.822Z,101.87
2017-09-28T04:41:39.868Z,77.33
2017-09-28T04:44:06.134Z,71.10
2017-09-28T04:46:32.202Z,68.40
2017-09-28T04:48:58.263Z,75.03
2017-09-28T04:51:24.369Z,73.30
2017-09-28T04:53:50.430Z,68.37
2017-09-28T04:56:16.549Z,78.57
2017-09-28T04:58:42.634Z,74.63
2017-09-28T05:01:09.469Z,79.67
2017-09-28T05:03:35.550Z,71.80
2017-09-28T05:06:01.653Z,77.30
2017-09-28T05:08:27.802Z,77.57
2017-09-28T05:10:54.610Z,77.20
2017-09-28T05:13:20.686Z,86.40
2017-09-28T05:15:46.729Z,76.70
2017-09-28T05:18:13.533Z,79.50
2017-09-28T05:20:39.591Z,76.93
2017-09-28T05:23:05.669Z,86.23
2017-09-28T05:25:32.454Z,77.60
2017-09-28T05:27:58.657Z,71.77
2017-09-28T05:30:24.720Z,78.43
2017-09-28T05:32:50.785Z,80.07
2017-09-28T05:35:16.855Z,72.07
2017-09-28T05:37:43.077Z,76.30
2017-09-28T05:40:09.211Z,76.33
2017-09-28T05:42:35.299Z,66.47
2017-09-28T05:45:01.443Z,64.80
2017-09-28T05:47:27.494Z,72.10
2017-09-28T05:49:54.321Z,69.60
2017-09-28T05:52:21.097Z,75.20
2017-09-28T05:54:47.178Z,65.27
2017-09-28T05:57:13.225Z,72.60
2017-09-28T05:59:39.271Z,71.50
2017-09-28T06:02:05.324Z,64.83
2017-09-28T06:04:31.418Z,60.50
2017-09-28T06:06:57.486Z,71.33
2017-09-28T06:09:24.309Z,63.50
2017-09-28T06:11:50.388Z,76.70
2017-09-28T06:14:17.182Z,65.27
2017-09-28T06:16:43.253Z,65.57
2017-09-28T06:19:10.249Z,62.47
2017-09-28T06:21:36.437Z,68.50
2017-09-28T06:24:02.501Z,67.40
2017-09-28T06:26:28.600Z,71.23
2017-09-28T06:28:55.436Z,70.57
2017-09-28T06:31:21.494Z,75.33
2017-09-28T06:33:47.580Z,66.07
2017-09-28T06:36:13.617Z,76.60
2017-09-28T06:38:40.443Z,74.90
2017-09-28T06:41:06.513Z,82.13
2017-09-28T06:43:33.439Z,75.70
2017-09-28T06:46:00.347Z,73.50
2017-09-28T06:48:26.480Z,76.23
2017-09-28T06:50:52.666Z,78.53
2017-09-28T06:53:18.842Z,80.20
2017-09-28T06:55:44.889Z,83.10
2017-09-28T06:58:11.009Z,76.80
2017-09-28T07:00:37.096Z,82.90
2017-09-28T07:03:03.200Z,75.43
2017-09-28T07:05:29.358Z,82.53
2017-09-28T07:07:55.454Z,84.90
2017-09-28T07:10:21.535Z,81.50
2017-09-28T07:12:47.581Z,83.77
2017-09-28T07:15:13.665Z,87.00
2017-09-28T07:17:39.737Z,85.00
2017-09-28T07:20:05.817Z,80.37
2017-09-28T07:22:32.618Z,76.90
2017-09-28T07:24:58.678Z,78.87
2017-09-28T07:27:25.481Z,84.17
2017-09-28T07:29:51.609Z,75.67
2017-09-28T07:32:17.690Z,82.43
2017-09-28T07:34:43.780Z,88.90
2017-09-28T07:37:09.876Z,84.60
2017-09-28T07:39:35.921Z,76.77
2017-09-28T07:42:02.074Z,79.67
2017-09-28T07:44:28.158Z,87.87
2017-09-28T07:46:54.993Z,79.47
2017-09-28T07:49:21.058Z,79.23
2017-09-28T07:51:47.140Z,71.63
2017-09-28T07:54:13.214Z,90.83
2017-09-28T07:56:40.048Z,78.93
2017-09-28T07:59:06.870Z,76.77
2017-09-28T08:01:33.678Z,74.77
2017-09-28T08:03:59.747Z,71.90
2017-09-28T08:06:25.841Z,74.53
2017-09-28T08:08:51.909Z,77.10
2017-09-28T08:11:17.962Z,84.33
2017-09-28T08:13:44.026Z,68.70
2017-09-28T08:16:10.091Z,79.27
2017-09-28T08:18:36.133Z,81.60
2017-09-28T08:21:02.212Z,78.40
2017-09-28T08:23:28.266Z,74.10
2017-09-28T08:25:54.318Z,89.43
2017-09-28T08:28:21.197Z,82.40
2017-09-28T08:30:47.265Z,86.63
2017-09-28T08:33:21.081Z,80.50
2017-09-28T08:35:47.157Z,91.90
2017-09-28T08:38:13.981Z,73.80
2017-09-28T08:40:40.786Z,102.00
2017-09-28T08:43:06.871Z,104.70
2017-09-28T08:45:32.926Z,100.20
2017-09-28T08:47:59.757Z,95.47
2017-09-28T08:50:26.592Z,99.87
2017-09-28T08:52:53.405Z,101.73
2017-09-28T08:55:19.458Z,109.10
2017-09-28T08:57:45.501Z,106.53
2017-09-28T09:00:11.569Z,97.27
2017-09-28T09:02:37.625Z,100.93
2017-09-28T09:05:04.458Z,94.30
2017-09-28T09:07:30.513Z,97.70
2017-09-28T09:09:56.594Z,98.87
2017-09-28T09:12:22.638Z,100.23
2017-09-28T09:14:48.706Z,97.67
2017-09-28T09:17:14.747Z,110.20
2017-09-28T09:19:40.789Z,96.70
2017-09-28T09:22:06.841Z,108.17
2017-09-28T09:24:33.632Z,104.53
2017-09-28T09:26:59.697Z,95.07
2017-09-28T09:29:25.753Z,115.87
2017-09-28T09:31:51.801Z,92.03
2017-09-28T09:34:17.881Z,93.73
2017-09-28T09:36:43.964Z,92.43
2017-09-28T09:39:10.011Z,95.37
2017-09-28T09:41:36.812Z,84.83
2017-09-28T09:44:02.866Z,98.27
2017-09-28T09:46:29.661Z,91.50
2017-09-28T09:48:56.458Z,104.67
2017-09-28T09:51:22.522Z,98.20
2017-09-28T09:53:49.295Z,91.50
2017-09-28T09:56:15.362Z,91.43
2017-09-28T09:58:42.163Z,91.67
2017-09-28T10:01:08.230Z,88.90
2017-09-28T10:03:34.273Z,96.33
2017-09-28T10:06:00.345Z,71.60
2017-09-28T10:08:27.745Z,85.60
2017-09-28T10:10:59.330Z,90.53
2017-09-28T10:13:33.505Z,85.43
2017-09-28T10:16:09.857Z,75.13
2017-09-28T10:18:36.192Z,81.53
2017-09-28T10:21:02.257Z,103.53
2017-09-28T10:23:29.068Z,83.50
2017-09-28T10:25:56.004Z,93.97
2017-09-28T10:28:22.775Z,87.77
2017-09-28T10:30:48.814Z,86.20
2017-09-28T10:33:14.857Z,92.80
2017-09-28T10:35:41.650Z,91.33
2017-09-28T10:38:07.718Z,89.07
2017-09-28T10:40:33.759Z,102.43
2017-09-28T10:42:59.842Z,99.23
2017-09-28T10:45:25.966Z,105.13
2017-09-28T10:47:52.031Z,89.83
2017-09-28T10:50:18.081Z,89.57
2017-09-28T10:52:44.140Z,90.30
2017-09-28T10:55:10.959Z,98.47
2017-09-28T10:57:37.019Z,100.70
2017-09-28T11:00:03.102Z,93.47
2017-09-28T11:02:29.886Z,91.23
2017-09-28T11:04:56.312Z,104.03
2017-09-28T11:07:22.376Z,92.13
2017-09-28T11:09:48.429Z,91.23
2017-09-28T11:12:14.525Z,109.17
2017-09-28T11:14:40.598Z,104.33
2017-09-28T11:17:06.653Z,96.80
2017-09-28T11:19:32.703Z,98.40
2017-09-28T11:21:58.769Z,87.33
2017-09-28T11:24:24.809Z,105.07
2017-09-28T11:26:51.606Z,93.13
2017-09-28T11:29:18.394Z,107.37
2017-09-28T11:31:44.446Z,115.27
2017-09-28T11:34:11.298Z,92.80
2017-09-28T11:36:37.385Z,99.57
2017-09-28T11:39:03.469Z,101.83
2017-09-28T11:41:29.586Z,100.07
2017-09-28T11:43:55.626Z,102.10
2017-09-28T11:46:21.673Z,99.70
2017-09-28T11:48:47.735Z,108.30
2017-09-28T11:51:13.822Z,119.83
2017-09-28T11:53:40.652Z,109.03
2017-09-28T11:56:06.696Z,87.83
2017-09-28T11:58:32.743Z,107.17
2017-09-28T12:00:58.789Z,97.90
2017-09-28T12:03:24.859Z,101.67
2017-09-28T12:05:50.925Z,93.10
2017-09-28T12:08:16.991Z,104.00
2017-09-28T12:10:43.064Z,95.50
2017-09-28T12:13:09.843Z,111.57
2017-09-28T12:15:35.902Z,104.30
2017-09-28T12:18:02.687Z,109.10
2017-09-28T12:20:28.757Z,104.53
2017-09-28T12:22:54.834Z,115.53
2017-09-28T12:25:21.698Z,106.90
2017-09-28T12:27:47.769Z,108.77
2017-09-28T12:30:14.585Z,113.93
2017-09-28T12:32:41.483Z,101.70
2017-09-28T12:35:07.595Z,110.60
2017-09-28T12:37:33.677Z,112.17
2017-09-28T12:39:59.706Z,111.60
2017-09-28T12:42:25.902Z,115.00
2017-09-28T12:44:51.944Z,106.63
2017-09-28T12:47:18.006Z,108.80
2017-09-28T12:49:44.049Z,112.47
2017-09-28T12:52:10.095Z,106.77
2017-09-28T12:54:36.120Z,116.00
2017-09-28T12:57:02.905Z,110.63
2017-09-28T12:59:28.981Z,104.30
2017-09-28T13:01:55.042Z,114.43
2017-09-28T13:04:21.166Z,107.10
2017-09-28T13:06:47.957Z,114.07
2017-09-28T13:09:13.998Z,110.33
2017-09-28T13:11:40.799Z,118.93
2017-09-28T13:14:07.457Z,122.83
2017-09-28T13:16:34.241Z,113.53
2017-09-28T13:19:00.321Z,124.97
2017-09-28T13:21:26.374Z,130.33
2017-09-28T13:23:52.404Z,132.83
2017-09-28T13:26:19.240Z,124.23
2017-09-28T13:28:45.321Z,127.43
2017-09-28T13:31:11.371Z,136.20
2017-09-28T13:33:37.456Z,142.90
2017-09-28T13:36:04.255Z,127.93
2017-09-28T13:38:30.317Z,134.07
2017-09-28T13:40:57.117Z,138.43
2017-09-28T13:43:23.163Z,123.27
2017-09-28T13:45:49.249Z,137.93
2017-09-28T13:48:16.073Z,137.77
2017-09-28T13:50:42.885Z,144.20
2017-09-28T13:53:09.712Z,136.77
2017-09-28T13:55:36.561Z,137.43
2017-09-28T13:58:02.613Z,135.40
2017-09-28T14:00:28.658Z,169.10
2017-09-28T14:02:55.473Z,144.80
2017-09-28T14:05:21.549Z,150.43
2017-09-28T14:07:47.606Z,150.43
2017-09-28T14:10:13.646Z,129.67
2017-09-28T14:12:39.682Z,140.50
2017-09-28T14:15:06.466Z,132.03
2017-09-28T14:17:32.514Z,158.67
2017-09-28T14:19:58.553Z,155.67
2017-09-28T14:22:24.619Z,144.83
2017-09-28T14:24:50.681Z,145.50
2017-09-28T14:27:16.726Z,142.33
2017-09-28T14:29:42.747Z,141.50
2017-09-28T14:32:08.805Z,139.73
2017-09-28T14:34:34.854Z,148.33
2017-09-28T14:37:00.901Z,144.70
2017-09-28T14:39:27.060Z,132.97
2017-09-28T14:41:53.049Z,141.67
2017-09-28T14:44:19.891Z,126.37
2017-09-28T14:46:46.689Z,150.30
2017-09-28T14:49:13.529Z,142.83
2017-09-28T14:51:39.606Z,144.53
2017-09-28T14:54:06.376Z,138.67
2017-09-28T14:56:33.170Z,149.63
2017-09-28T14:58:59.216Z,135.00
2017-09-28T15:01:25.281Z,132.03
2017-09-28T15:03:51.322Z,140.60
2017-09-28T15:06:18.179Z,146.47
2017-09-28T15:08:44.322Z,149.83
2017-09-28T15:11:10.418Z,148.93
2017-09-28T15:13:36.486Z,133.70
2017-09-28T15:16:02.530Z,134.60
2017-09-28T15:18:28.590Z,134.60
2017-09-28T15:20:54.629Z,136.20
2017-09-28T15:23:20.681Z,143.37
2017-09-28T15:25:46.725Z,147.10
2017-09-28T15:28:13.511Z,130.60
2017-09-28T15:30:39.557Z,122.27
2017-09-28T15:33:06.357Z,135.57
2017-09-28T15:35:32.389Z,132.27
2017-09-28T15:37:58.450Z,130.13
2017-09-28T15:40:24.537Z,133.37
2017-09-28T15:42:50.603Z,143.80
2017-09-28T15:45:16.685Z,135.20
2017-09-28T15:47:42.770Z,140.07
2017-09-28T15:50:08.835Z,128.47
2017-09-28T15:52:35.734Z,131.60
2017-09-28T15:55:01.814Z,138.50
2017-09-28T15:57:27.867Z,125.97
2017-09-28T15:59:53.949Z,126.03
2017-09-28T16:02:19.985Z,151.70
2017-09-28T16:04:46.781Z,129.60
2017-09-28T16:07:12.843Z,125.10
2017-09-28T16:09:39.633Z,148.67
2017-09-28T16:12:05.654Z,142.77
2017-09-28T16:14:31.705Z,147.40
2017-09-28T16:16:57.749Z,132.67
2017-09-28T16:19:23.797Z,142.50
2017-09-28T16:21:49.849Z,139.93
2017-09-28T16:24:15.902Z,140.27
2017-09-28T16:26:41.954Z,138.73
2017-09-28T16:29:08.241Z,137.87
2017-09-28T16:31:35.069Z,145.50
2017-09-28T16:34:01.930Z,133.70
2017-09-28T16:36:27.990Z,153.10
2017-09-28T16:38:54.056Z,133.50
2017-09-28T16:41:20.139Z,148.60
2017-09-28T16:43:46.206Z,139.97
2017-09-28T16:46:12.262Z,155.73
2017-09-28T16:48:38.350Z,148.07
2017-09-28T16:51:04.386Z,136.93
2017-09-28T16:53:31.185Z,146.37
2017-09-28T16:55:57.237Z,154.20
2017-09-28T16:58:23.293Z,153.40
2017-09-28T17:00:49.365Z,143.27
2017-09-28T17:03:15.421Z,143.97
2017-09-28T17:05:41.495Z,135.13
2017-09-28T17:08:07.557Z,142.47
2017-09-28T17:10:34.361Z,145.80
2017-09-28T17:13:00.425Z,132.30
2017-09-28T17:15:26.494Z,138.17
2017-09-28T17:17:53.314Z,145.13
2017-09-28T17:20:19.434Z,144.50
2017-09-28T17:22:45.531Z,147.87
2017-09-28T17:25:12.374Z,162.90
2017-09-28T17:27:38.413Z,149.23
2017-09-28T17:30:04.505Z,155.63
2017-09-28T17:32:30.561Z,152.03
2017-09-28T17:34:56.589Z,154.77
2017-09-28T17:37:22.649Z,137.97
2017-09-28T17:39:48.839Z,167.93
2017-09-28T17:42:15.514Z,145.17
2017-09-28T17:44:41.562Z,137.20
2017-09-28T17:47:08.365Z,157.37
2017-09-28T17:49:34.406Z,169.70
2017-09-28T17:52:01.338Z,154.23
2017-09-28T17:54:27.393Z,151.03
2017-09-28T17:56:53.505Z,156.90
2017-09-28T17:59:19.562Z,165.00
2017-09-28T18:01:45.637Z,154.17
2017-09-28T18:04:11.712Z,159.23
2017-09-28T18:06:37.802Z,146.50
2017-09-28T18:09:03.875Z,159.70
2017-09-28T18:11:29.965Z,152.87
2017-09-28T18:13:56.853Z,157.30
2017-09-28T18:16:22.926Z,142.27
2017-09-28T18:18:49.048Z,154.67
2017-09-28T18:21:15.863Z,164.57
2017-09-28T18:23:42.680Z,159.73
2017-09-28T18:26:08.769Z,169.87
2017-09-28T18:28:34.830Z,174.60
2017-09-28T18:31:01.633Z,163.77
2017-09-28T18:33:27.676Z,176.63
2017-09-28T18:35:53.843Z,165.87
2017-09-28T18:38:19.884Z,161.83
2017-09-28T18:40:46.670Z,152.63
2017-09-28T18:43:12.759Z,167.97
2017-09-28T18:45:38.821Z,157.00
2017-09-28T18:48:05.613Z,161.00
2017-09-28T18:50:31.683Z,164.57
2017-09-28T18:52:57.737Z,141.90
2017-09-28T18:55:23.813Z,151.87
2017-09-28T18:57:49.857Z,154.73
2017-09-28T19:00:16.034Z,163.03
2017-09-28T19:02:42.084Z,158.40
2017-09-28T19:05:08.261Z,158.90
2017-09-28T19:07:34.762Z,155.43
2017-09-28T19:10:00.855Z,157.53
2017-09-28T19:12:27.653Z,147.73
2017-09-28T19:14:53.715Z,173.70
2017-09-28T19:17:19.781Z,169.80
2017-09-28T19:19:45.813Z,168.00
2017-09-28T19:22:12.590Z,168.63
2017-09-28T19:24:38.678Z,174.77
2017-09-28T19:27:05.497Z,164.63
2017-09-28T19:29:31.583Z,170.90
2017-09-28T19:31:57.633Z,162.57
2017-09-28T19:34:23.692Z,166.60
2017-09-28T19:36:50.509Z,153.40
2017-09-28T19:39:16.537Z,167.97
2017-09-28T19:41:42.596Z,158.07
2017-09-28T19:44:08.662Z,160.77
2017-09-28T19:46:35.465Z,180.57
2017-09-28T19:49:02.285Z,166.70
2017-09-28T19:51:28.350Z,166.60
2017-09-28T19:53:54.414Z,162.87
2017-09-28T19:56:20.442Z,172.23
2017-09-28T19:58:47.229Z,178.93
2017-09-28T20:01:13.279Z,179.97
2017-09-28T20:03:39.371Z,189.60
2017-09-28T20:06:05.416Z,177.20
2017-09-28T20:08:31.479Z,196.33
2017-09-28T20:10:57.525Z,187.90
2017-09-28T20:13:23.664Z,177.60
2017-09-28T20:15:49.711Z,193.30
2017-09-28T20:18:15.762Z,190.00
2017-09-28T20:20:41.818Z,188.00
2017-09-28T20:23:09.393Z,188.03
2017-09-28T20:25:35.702Z,209.87
2017-09-28T20:28:01.754Z,191.23
2017-09-28T20:30:27.819Z,177.77
2017-09-28T20:32:56.109Z,171.87
2017-09-28T20:35:22.419Z,186.37
2017-09-28T20:37:48.673Z,195.10
2017-09-28T20:40:14.747Z,193.13
2017-09-28T20:42:40.832Z,173.93
2017-09-28T20:45:07.074Z,173.30
2017-09-28T20:47:33.140Z,201.47
2017-09-28T20:50:04.564Z,191.40
2017-09-28T20:52:31.404Z,198.33
2017-09-28T20:54:58.192Z,205.10
2017-09-28T20:57:24.225Z,189.23
2017-09-28T20:59:53.500Z,197.70
2017-09-28T21:02:19.533Z,180.43
2017-09-28T21:04:45.668Z,201.90
2017-09-28T21:07:11.697Z,189.67
2017-09-28T21:09:37.725Z,178.47
2017-09-28T21:12:03.793Z,199.67
2017-09-28T21:14:29.881Z,186.70
2017-09-28T21:16:56.696Z,195.27
2017-09-28T21:19:23.505Z,183.10
2017-09-28T21:21:49.531Z,212.07
2017-09-28T21:24:15.577Z,199.47
2017-09-28T21:26:41.606Z,187.03
2017-09-28T21:29:07.737Z,176.97
2017-09-28T21:31:33.782Z,180.63
2017-09-28T21:33:59.785Z,181.03
2017-09-28T21:36:25.853Z,192.60
2017-09-28T21:38:51.900Z,191.80
2017-09-28T21:41:17.949Z,195.20
2017-09-28T21:43:44.017Z,182.53
2017-09-28T21:46:10.085Z,182.03
2017-09-28T21:48:36.125Z,195.97
2017-09-28T21:51:02.221Z,189.40
2017-09-28T21:53:28.272Z,186.60
2017-09-28T21:55:55.360Z,191.10
2017-09-28T21:58:21.397Z,195.60
2017-09-28T22:00:48.429Z,184.80
2017-09-28T22:03:14.450Z,197.50
2017-09-28T22:05:41.236Z,184.93
2017-09-28T22:08:07.274Z,183.60
2017-09-28T22:10:34.058Z,169.47
2017-09-28T22:13:00.352Z,165.43
2017-09-28T22:15:26.459Z,160.27
2017-09-28T22:17:52.509Z,158.67
2017-09-28T22:20:18.565Z,167.30
2017-09-28T22:22:44.621Z,163.20
2017-09-28T22:25:10.645Z,143.77
2017-09-28T22:27:36.670Z,151.60
2017-09-28T22:30:02.697Z,163.13
2017-09-28T22:32:28.740Z,145.27
2017-09-28T22:34:54.761Z,150.37
2017-09-28T22:37:20.790Z,151.07
2017-09-28T22:39:46.809Z,154.20
2017-09-28T22:42:12.814Z,144.70
2017-09-28T22:44:39.627Z,148.23
2017-09-28T22:47:05.645Z,146.03
2017-09-28T22:49:31.709Z,151.53
2017-09-28T22:51:57.737Z,139.07
2017-09-28T22:54:23.798Z,135.57
2017-09-28T22:56:49.829Z,139.53
2017-09-28T22:59:15.946Z,134.40
2017-09-28T23:01:42.007Z,132.60
2017-09-28T23:04:08.817Z,157.50
2017-09-28T23:06:34.881Z,136.37
2017-09-28T23:09:00.912Z,142.53
2017-09-28T23:11:27.766Z,138.60
2017-09-28T23:13:53.817Z,147.77
2017-09-28T23:16:19.869Z,153.57
2017-09-28T23:18:45.907Z,131.93
2017-09-28T23:21:11.930Z,125.57
2017-09-28T23:23:38.717Z,122.90
2017-09-28T23:26:04.791Z,119.53
2017-09-28T23:28:30.833Z,135.17
2017-09-28T23:30:56.857Z,147.87
2017-09-28T23:33:22.914Z,128.83
2017-09-28T23:35:48.985Z,121.93
2017-09-28T23:38:15.817Z,120.67
2017-09-28T23:40:41.850Z,117.63
2017-09-28T23:43:08.205Z,113.53
2017-09-28T23:45:34.262Z,118.33
2017-09-28T23:48:00.314Z,104.07
2017-09-28T23:50:26.361Z,129.20
2017-09-28T23:52:52.406Z,113.90
2017-09-28T23:55:18.447Z,116.17
2017-09-28T23:57:44.525Z,92.63
